sensor_id;sensor_type;location;lat;lon;timestamp;temperature;humidity
17346;DHT22;8790;53.590;10.002;2023-06-24T00:01:23;18.50;99.90
17346;DHT22;8790;53.590;10.002;2023-06-24T00:03:55;18.50;99.90
17346;DHT22;8790;53.590;10.002;2023-06-24T00:06:27;18.40;99.90
17346;DHT22;8790;53.590;10.002;2023-06-24T00:08:58;18.40;99.90
17346;DHT22;8790;53.590;10.002;2023-06-24T00:11:31;18.40;99.90
17346;DHT22;8790;53.590;10.002;2023-06-24T00:14:04;18.30;99.90
17346;DHT22;8790;53.590;10.002;2023-06-24T00:16:37;18.40;99.90
17346;DHT22;8790;53.590;10.002;2023-06-24T00:19:08;18.30;99.90
17346;DHT22;8790;53.590;10.002;2023-06-24T00:21:40;18.30;99.90
17346;DHT22;8790;53.590;10.002;2023-06-24T00:24:12;18.30;99.90
17346;DHT22;8790;53.590;10.002;2023-06-24T00:26:44;18.20;99.90
17346;DHT22;8790;53.590;10.002;2023-06-24T00:29:17;18.20;99.90
17346;DHT22;8790;53.590;10.002;2023-06-24T00:31:49;18.20;99.90
17346;DHT22;8790;53.590;10.002;2023-06-24T00:34:20;18.20;99.90
17346;DHT22;8790;53.590;10.002;2023-06-24T00:36:56;18.20;99.90
17346;DHT22;8790;53.590;10.002;2023-06-24T00:39:27;18.10;99.90
17346;DHT22;8790;53.590;10.002;2023-06-24T00:41:59;18.10;99.90
17346;DHT22;8790;53.590;10.002;2023-06-24T00:44:32;18.10;99.90
17346;DHT22;8790;53.590;10.002;2023-06-24T00:47:06;18.10;99.90
17346;DHT22;8790;53.590;10.002;2023-06-24T00:49:38;18.10;99.90
17346;DHT22;8790;53.590;10.002;2023-06-24T00:52:10;18.10;99.90
17346;DHT22;8790;53.590;10.002;2023-06-24T00:54:46;18.10;99.90
17346;DHT22;8790;53.590;10.002;2023-06-24T00:57:19;18.10;99.90
17346;DHT22;8790;53.590;10.002;2023-06-24T00:59:56;18.00;99.90
17346;DHT22;8790;53.590;10.002;2023-06-24T01:02:30;18.00;99.90
17346;DHT22;8790;53.590;10.002;2023-06-24T01:05:03;18.00;99.90
17346;DHT22;8790;53.590;10.002;2023-06-24T01:07:37;18.00;99.90
17346;DHT22;8790;53.590;10.002;2023-06-24T01:10:10;18.00;99.90
17346;DHT22;8790;53.590;10.002;2023-06-24T01:12:43;18.00;99.90
17346;DHT22;8790;53.590;10.002;2023-06-24T01:15:18;18.00;99.90
17346;DHT22;8790;53.590;10.002;2023-06-24T01:17:56;18.00;99.90
17346;DHT22;8790;53.590;10.002;2023-06-24T01:20:36;17.90;99.90
17346;DHT22;8790;53.590;10.002;2023-06-24T01:23:36;17.90;99.90
17346;DHT22;8790;53.590;10.002;2023-06-24T01:26:32;17.80;99.90
17346;DHT22;8790;53.590;10.002;2023-06-24T01:29:34;17.80;99.90
17346;DHT22;8790;53.590;10.002;2023-06-24T01:32:11;17.90;99.90
17346;DHT22;8790;53.590;10.002;2023-06-24T01:34:51;17.80;99.90
17346;DHT22;8790;53.590;10.002;2023-06-24T01:37:28;17.80;99.90
17346;DHT22;8790;53.590;10.002;2023-06-24T01:40:05;17.80;99.90
17346;DHT22;8790;53.590;10.002;2023-06-24T01:42:42;17.80;99.90
17346;DHT22;8790;53.590;10.002;2023-06-24T01:45:19;17.80;99.90
17346;DHT22;8790;53.590;10.002;2023-06-24T01:48:00;17.80;99.90
17346;DHT22;8790;53.590;10.002;2023-06-24T01:50:33;17.80;99.90
17346;DHT22;8790;53.590;10.002;2023-06-24T01:53:07;17.80;99.90
17346;DHT22;8790;53.590;10.002;2023-06-24T01:55:41;17.70;99.90
17346;DHT22;8790;53.590;10.002;2023-06-24T01:58:16;17.70;99.90
17346;DHT22;8790;53.590;10.002;2023-06-24T02:00:49;17.70;99.90
17346;DHT22;8790;53.590;10.002;2023-06-24T02:03:23;17.60;99.90
17346;DHT22;8790;53.590;10.002;2023-06-24T02:05:57;17.60;99.90
17346;DHT22;8790;53.590;10.002;2023-06-24T02:08:33;17.50;99.90
17346;DHT22;8790;53.590;10.002;2023-06-24T02:11:08;17.60;99.90
17346;DHT22;8790;53.590;10.002;2023-06-24T02:13:42;17.50;99.90
17346;DHT22;8790;53.590;10.002;2023-06-24T02:16:21;17.60;99.90
17346;DHT22;8790;53.590;10.002;2023-06-24T02:18:55;17.60;99.90
17346;DHT22;8790;53.590;10.002;2023-06-24T02:21:29;17.60;99.90
17346;DHT22;8790;53.590;10.002;2023-06-24T02:24:01;17.60;99.90
17346;DHT22;8790;53.590;10.002;2023-06-24T02:26:36;17.50;99.90
17346;DHT22;8790;53.590;10.002;2023-06-24T02:29:11;17.40;99.90
17346;DHT22;8790;53.590;10.002;2023-06-24T02:31:44;17.40;99.90
17346;DHT22;8790;53.590;10.002;2023-06-24T02:34:18;17.50;99.90
17346;DHT22;8790;53.590;10.002;2023-06-24T02:36:50;17.40;99.90
17346;DHT22;8790;53.590;10.002;2023-06-24T02:39:22;17.40;99.90
17346;DHT22;8790;53.590;10.002;2023-06-24T02:41:54;17.40;99.90
17346;DHT22;8790;53.590;10.002;2023-06-24T02:44:26;17.50;99.90
17346;DHT22;8790;53.590;10.002;2023-06-24T02:46:58;17.40;99.90
17346;DHT22;8790;53.590;10.002;2023-06-24T02:49:32;17.40;99.90
17346;DHT22;8790;53.590;10.002;2023-06-24T02:52:05;17.40;99.90
17346;DHT22;8790;53.590;10.002;2023-06-24T02:54:38;17.40;99.90
17346;DHT22;8790;53.590;10.002;2023-06-24T02:57:30;17.20;99.90
17346;DHT22;8790;53.590;10.002;2023-06-24T03:00:35;17.20;99.90
17346;DHT22;8790;53.590;10.002;2023-06-24T03:03:14;17.20;99.90
17346;DHT22;8790;53.590;10.002;2023-06-24T03:05:54;17.20;99.90
17346;DHT22;8790;53.590;10.002;2023-06-24T03:08:28;17.20;99.90
17346;DHT22;8790;53.590;10.002;2023-06-24T03:11:01;17.30;99.90
17346;DHT22;8790;53.590;10.002;2023-06-24T03:13:35;17.30;99.90
17346;DHT22;8790;53.590;10.002;2023-06-24T03:16:15;17.30;99.90
17346;DHT22;8790;53.590;10.002;2023-06-24T03:18:55;17.20;99.90
17346;DHT22;8790;53.590;10.002;2023-06-24T03:21:28;17.20;99.90
17346;DHT22;8790;53.590;10.002;2023-06-24T03:24:07;17.10;99.90
17346;DHT22;8790;53.590;10.002;2023-06-24T03:26:41;17.10;99.90
17346;DHT22;8790;53.590;10.002;2023-06-24T03:29:16;17.00;99.90
17346;DHT22;8790;53.590;10.002;2023-06-24T03:31:57;17.00;99.90
17346;DHT22;8790;53.590;10.002;2023-06-24T03:34:31;17.10;99.90
17346;DHT22;8790;53.590;10.002;2023-06-24T03:37:04;17.10;99.90
17346;DHT22;8790;53.590;10.002;2023-06-24T03:39:38;17.10;99.90
17346;DHT22;8790;53.590;10.002;2023-06-24T03:42:11;17.00;99.90
17346;DHT22;8790;53.590;10.002;2023-06-24T03:44:43;17.00;99.90
17346;DHT22;8790;53.590;10.002;2023-06-24T03:47:14;17.00;99.90
17346;DHT22;8790;53.590;10.002;2023-06-24T03:49:46;17.20;99.90
17346;DHT22;8790;53.590;10.002;2023-06-24T03:52:19;17.30;99.90
17346;DHT22;8790;53.590;10.002;2023-06-24T03:54:51;17.30;99.90
17346;DHT22;8790;53.590;10.002;2023-06-24T03:57:24;17.40;99.90
17346;DHT22;8790;53.590;10.002;2023-06-24T03:59:55;17.40;99.90
17346;DHT22;8790;53.590;10.002;2023-06-24T04:02:27;17.40;99.90
17346;DHT22;8790;53.590;10.002;2023-06-24T04:04:59;17.50;99.90
17346;DHT22;8790;53.590;10.002;2023-06-24T04:07:32;17.40;99.90
17346;DHT22;8790;53.590;10.002;2023-06-24T04:10:08;17.40;99.90
17346;DHT22;8790;53.590;10.002;2023-06-24T04:12:41;17.40;99.90
17346;DHT22;8790;53.590;10.002;2023-06-24T04:15:13;17.40;99.90
17346;DHT22;8790;53.590;10.002;2023-06-24T04:17:44;17.40;99.90
17346;DHT22;8790;53.590;10.002;2023-06-24T04:20:16;17.40;99.90
17346;DHT22;8790;53.590;10.002;2023-06-24T04:22:49;17.30;99.90
17346;DHT22;8790;53.590;10.002;2023-06-24T04:25:21;17.40;99.90
17346;DHT22;8790;53.590;10.002;2023-06-24T04:27:53;17.40;99.90
17346;DHT22;8790;53.590;10.002;2023-06-24T04:30:24;17.40;99.90
17346;DHT22;8790;53.590;10.002;2023-06-24T04:32:56;17.40;99.90
17346;DHT22;8790;53.590;10.002;2023-06-24T04:35:28;17.40;99.90
17346;DHT22;8790;53.590;10.002;2023-06-24T04:38:02;17.40;99.90
17346;DHT22;8790;53.590;10.002;2023-06-24T04:40:33;17.40;99.90
17346;DHT22;8790;53.590;10.002;2023-06-24T04:43:05;17.40;99.90
17346;DHT22;8790;53.590;10.002;2023-06-24T04:45:37;17.50;99.90
17346;DHT22;8790;53.590;10.002;2023-06-24T04:48:09;17.40;99.90
17346;DHT22;8790;53.590;10.002;2023-06-24T04:50:40;17.50;99.90
17346;DHT22;8790;53.590;10.002;2023-06-24T04:53:14;17.50;99.90
17346;DHT22;8790;53.590;10.002;2023-06-24T04:55:45;17.50;99.90
17346;DHT22;8790;53.590;10.002;2023-06-24T04:58:17;17.60;99.90
17346;DHT22;8790;53.590;10.002;2023-06-24T05:00:49;17.60;99.90
17346;DHT22;8790;53.590;10.002;2023-06-24T05:03:21;17.60;99.90
17346;DHT22;8790;53.590;10.002;2023-06-24T05:05:52;17.60;99.90
17346;DHT22;8790;53.590;10.002;2023-06-24T05:08:25;17.60;99.90
17346;DHT22;8790;53.590;10.002;2023-06-24T05:10:57;17.60;99.90
17346;DHT22;8790;53.590;10.002;2023-06-24T05:13:29;17.60;99.90
17346;DHT22;8790;53.590;10.002;2023-06-24T05:16:01;17.60;99.90
17346;DHT22;8790;53.590;10.002;2023-06-24T05:18:32;17.60;99.90
17346;DHT22;8790;53.590;10.002;2023-06-24T05:21:04;17.60;99.90
17346;DHT22;8790;53.590;10.002;2023-06-24T05:23:37;17.60;99.90
17346;DHT22;8790;53.590;10.002;2023-06-24T05:26:09;17.70;99.90
17346;DHT22;8790;53.590;10.002;2023-06-24T05:28:41;17.70;99.90
17346;DHT22;8790;53.590;10.002;2023-06-24T05:31:13;17.70;99.90
17346;DHT22;8790;53.590;10.002;2023-06-24T05:33:45;17.70;99.90
17346;DHT22;8790;53.590;10.002;2023-06-24T05:36:17;17.70;99.90
17346;DHT22;8790;53.590;10.002;2023-06-24T05:38:50;17.80;99.90
17346;DHT22;8790;53.590;10.002;2023-06-24T05:41:22;17.80;99.90
17346;DHT22;8790;53.590;10.002;2023-06-24T05:44:01;17.90;99.90
17346;DHT22;8790;53.590;10.002;2023-06-24T05:46:33;17.80;99.90
17346;DHT22;8790;53.590;10.002;2023-06-24T05:49:05;17.80;99.90
17346;DHT22;8790;53.590;10.002;2023-06-24T05:51:37;17.90;99.90
17346;DHT22;8790;53.590;10.002;2023-06-24T05:54:10;17.90;99.90
17346;DHT22;8790;53.590;10.002;2023-06-24T05:56:42;18.00;99.90
17346;DHT22;8790;53.590;10.002;2023-06-24T05:59:13;18.10;99.90
17346;DHT22;8790;53.590;10.002;2023-06-24T06:01:45;18.10;99.90
17346;DHT22;8790;53.590;10.002;2023-06-24T06:04:17;18.10;99.90
17346;DHT22;8790;53.590;10.002;2023-06-24T06:06:48;18.10;99.90
17346;DHT22;8790;53.590;10.002;2023-06-24T06:09:22;18.10;99.90
17346;DHT22;8790;53.590;10.002;2023-06-24T06:11:54;18.10;99.90
17346;DHT22;8790;53.590;10.002;2023-06-24T06:14:25;18.20;99.90
17346;DHT22;8790;53.590;10.002;2023-06-24T06:16:57;18.30;99.90
17346;DHT22;8790;53.590;10.002;2023-06-24T06:19:29;18.30;99.90
17346;DHT22;8790;53.590;10.002;2023-06-24T06:22:01;18.40;99.90
17346;DHT22;8790;53.590;10.002;2023-06-24T06:24:35;18.40;99.90
17346;DHT22;8790;53.590;10.002;2023-06-24T06:27:09;18.50;99.90
17346;DHT22;8790;53.590;10.002;2023-06-24T06:29:41;18.50;99.90
17346;DHT22;8790;53.590;10.002;2023-06-24T06:32:13;18.50;99.90
17346;DHT22;8790;53.590;10.002;2023-06-24T06:34:45;18.60;99.90
17346;DHT22;8790;53.590;10.002;2023-06-24T06:37:16;18.60;99.90
17346;DHT22;8790;53.590;10.002;2023-06-24T06:39:49;18.50;99.90
17346;DHT22;8790;53.590;10.002;2023-06-24T06:42:21;18.60;99.90
17346;DHT22;8790;53.590;10.002;2023-06-24T06:44:53;18.60;99.90
17346;DHT22;8790;53.590;10.002;2023-06-24T06:47:25;18.60;99.90
17346;DHT22;8790;53.590;10.002;2023-06-24T06:49:56;18.60;99.90
17346;DHT22;8790;53.590;10.002;2023-06-24T06:52:28;18.60;99.90
17346;DHT22;8790;53.590;10.002;2023-06-24T06:55:01;18.60;99.90
17346;DHT22;8790;53.590;10.002;2023-06-24T06:57:33;18.70;99.90
17346;DHT22;8790;53.590;10.002;2023-06-24T07:00:06;18.60;99.90
17346;DHT22;8790;53.590;10.002;2023-06-24T07:02:37;18.60;99.90
17346;DHT22;8790;53.590;10.002;2023-06-24T07:05:09;18.60;99.90
17346;DHT22;8790;53.590;10.002;2023-06-24T07:07:41;18.80;99.90
17346;DHT22;8790;53.590;10.002;2023-06-24T07:10:17;18.80;99.90
17346;DHT22;8790;53.590;10.002;2023-06-24T07:12:49;18.80;99.90
17346;DHT22;8790;53.590;10.002;2023-06-24T07:15:21;18.90;99.90
17346;DHT22;8790;53.590;10.002;2023-06-24T07:17:53;18.90;99.90
17346;DHT22;8790;53.590;10.002;2023-06-24T07:20:25;19.00;99.90
17346;DHT22;8790;53.590;10.002;2023-06-24T07:22:56;19.10;99.90
17346;DHT22;8790;53.590;10.002;2023-06-24T07:25:30;19.10;99.90
17346;DHT22;8790;53.590;10.002;2023-06-24T07:28:01;19.10;99.90
17346;DHT22;8790;53.590;10.002;2023-06-24T07:30:33;19.20;99.90
17346;DHT22;8790;53.590;10.002;2023-06-24T07:33:05;19.30;99.90
17346;DHT22;8790;53.590;10.002;2023-06-24T07:35:37;19.30;99.90
17346;DHT22;8790;53.590;10.002;2023-06-24T07:38:08;19.40;99.90
17346;DHT22;8790;53.590;10.002;2023-06-24T07:40:41;19.50;99.90
17346;DHT22;8790;53.590;10.002;2023-06-24T07:43:13;19.40;99.90
17346;DHT22;8790;53.590;10.002;2023-06-24T07:45:45;19.50;99.90
17346;DHT22;8790;53.590;10.002;2023-06-24T07:48:22;19.60;99.90
17346;DHT22;8790;53.590;10.002;2023-06-24T07:50:54;19.60;99.90
17346;DHT22;8790;53.590;10.002;2023-06-24T07:53:26;19.60;99.90
17346;DHT22;8790;53.590;10.002;2023-06-24T07:55:59;19.70;99.90
17346;DHT22;8790;53.590;10.002;2023-06-24T07:58:30;19.90;99.90
17346;DHT22;8790;53.590;10.002;2023-06-24T08:01:02;20.00;99.90
17346;DHT22;8790;53.590;10.002;2023-06-24T08:03:34;20.00;99.90
17346;DHT22;8790;53.590;10.002;2023-06-24T08:06:07;20.00;99.90
17346;DHT22;8790;53.590;10.002;2023-06-24T08:08:39;20.10;99.90
17346;DHT22;8790;53.590;10.002;2023-06-24T08:11:12;20.10;99.90
17346;DHT22;8790;53.590;10.002;2023-06-24T08:13:44;20.10;99.90
17346;DHT22;8790;53.590;10.002;2023-06-24T08:16:16;20.20;99.90
17346;DHT22;8790;53.590;10.002;2023-06-24T08:18:48;20.20;99.90
17346;DHT22;8790;53.590;10.002;2023-06-24T08:21:20;20.20;99.90
17346;DHT22;8790;53.590;10.002;2023-06-24T08:23:52;20.20;99.90
17346;DHT22;8790;53.590;10.002;2023-06-24T08:26:25;20.20;99.90
17346;DHT22;8790;53.590;10.002;2023-06-24T08:28:56;20.30;99.90
17346;DHT22;8790;53.590;10.002;2023-06-24T08:31:29;20.40;99.90
17346;DHT22;8790;53.590;10.002;2023-06-24T08:34:01;20.50;99.90
17346;DHT22;8790;53.590;10.002;2023-06-24T08:36:33;20.50;99.90
17346;DHT22;8790;53.590;10.002;2023-06-24T08:39:07;20.50;99.90
17346;DHT22;8790;53.590;10.002;2023-06-24T08:41:40;20.50;99.90
17346;DHT22;8790;53.590;10.002;2023-06-24T08:44:12;20.50;99.90
17346;DHT22;8790;53.590;10.002;2023-06-24T08:46:44;20.50;99.90
17346;DHT22;8790;53.590;10.002;2023-06-24T08:49:25;20.60;99.90
17346;DHT22;8790;53.590;10.002;2023-06-24T08:52:02;20.70;99.90
17346;DHT22;8790;53.590;10.002;2023-06-24T08:54:35;20.80;99.90
17346;DHT22;8790;53.590;10.002;2023-06-24T08:57:10;20.80;99.90
17346;DHT22;8790;53.590;10.002;2023-06-24T08:59:45;20.80;99.90
17346;DHT22;8790;53.590;10.002;2023-06-24T09:02:17;20.80;99.90
17346;DHT22;8790;53.590;10.002;2023-06-24T09:04:50;20.80;99.90
17346;DHT22;8790;53.590;10.002;2023-06-24T09:07:26;20.90;99.90
17346;DHT22;8790;53.590;10.002;2023-06-24T09:09:58;21.00;99.90
17346;DHT22;8790;53.590;10.002;2023-06-24T09:12:33;21.10;99.90
17346;DHT22;8790;53.590;10.002;2023-06-24T09:15:06;21.10;99.90
17346;DHT22;8790;53.590;10.002;2023-06-24T09:17:44;21.10;99.90
17346;DHT22;8790;53.590;10.002;2023-06-24T09:20:19;21.10;99.90
17346;DHT22;8790;53.590;10.002;2023-06-24T09:22:58;21.20;99.90
17346;DHT22;8790;53.590;10.002;2023-06-24T09:25:31;21.20;99.90
17346;DHT22;8790;53.590;10.002;2023-06-24T09:28:04;21.20;99.90
17346;DHT22;8790;53.590;10.002;2023-06-24T09:30:36;21.30;99.90
17346;DHT22;8790;53.590;10.002;2023-06-24T09:33:11;21.30;99.90
17346;DHT22;8790;53.590;10.002;2023-06-24T09:35:43;21.20;99.90
17346;DHT22;8790;53.590;10.002;2023-06-24T09:38:32;21.30;99.90
17346;DHT22;8790;53.590;10.002;2023-06-24T09:41:04;21.30;99.90
17346;DHT22;8790;53.590;10.002;2023-06-24T09:43:37;21.40;99.90
17346;DHT22;8790;53.590;10.002;2023-06-24T09:46:11;21.40;99.90
17346;DHT22;8790;53.590;10.002;2023-06-24T09:48:43;21.40;99.90
17346;DHT22;8790;53.590;10.002;2023-06-24T09:51:16;21.40;99.90
17346;DHT22;8790;53.590;10.002;2023-06-24T09:53:51;21.40;99.90
17346;DHT22;8790;53.590;10.002;2023-06-24T09:56:24;21.40;99.90
17346;DHT22;8790;53.590;10.002;2023-06-24T09:58:58;21.50;99.90
17346;DHT22;8790;53.590;10.002;2023-06-24T10:01:31;21.50;99.90
17346;DHT22;8790;53.590;10.002;2023-06-24T10:04:04;21.50;99.90
17346;DHT22;8790;53.590;10.002;2023-06-24T10:06:36;21.50;99.90
17346;DHT22;8790;53.590;10.002;2023-06-24T10:09:08;21.50;99.90
17346;DHT22;8790;53.590;10.002;2023-06-24T10:11:40;21.50;99.90
17346;DHT22;8790;53.590;10.002;2023-06-24T10:14:13;21.50;99.90
17346;DHT22;8790;53.590;10.002;2023-06-24T10:16:45;21.60;99.90
17346;DHT22;8790;53.590;10.002;2023-06-24T10:19:19;21.60;99.90
17346;DHT22;8790;53.590;10.002;2023-06-24T10:21:53;21.70;99.90
17346;DHT22;8790;53.590;10.002;2023-06-24T10:24:29;21.60;99.90
17346;DHT22;8790;53.590;10.002;2023-06-24T10:27:03;21.60;99.90
17346;DHT22;8790;53.590;10.002;2023-06-24T10:29:36;21.70;99.90
17346;DHT22;8790;53.590;10.002;2023-06-24T10:32:09;21.80;99.90
17346;DHT22;8790;53.590;10.002;2023-06-24T10:34:42;21.90;99.90
17346;DHT22;8790;53.590;10.002;2023-06-24T10:37:18;21.90;99.90
17346;DHT22;8790;53.590;10.002;2023-06-24T10:39:51;21.90;99.90
17346;DHT22;8790;53.590;10.002;2023-06-24T10:42:37;21.90;99.90
17346;DHT22;8790;53.590;10.002;2023-06-24T10:45:20;21.90;99.90
17346;DHT22;8790;53.590;10.002;2023-06-24T10:47:53;21.90;99.90
17346;DHT22;8790;53.590;10.002;2023-06-24T10:50:26;22.00;99.90
17346;DHT22;8790;53.590;10.002;2023-06-24T10:52:59;22.00;99.90
17346;DHT22;8790;53.590;10.002;2023-06-24T10:55:32;22.00;99.90
17346;DHT22;8790;53.590;10.002;2023-06-24T11:01:10;22.10;99.90
17346;DHT22;8790;53.590;10.002;2023-06-24T11:03:42;22.10;99.90
17346;DHT22;8790;53.590;10.002;2023-06-24T11:06:14;22.20;99.90
17346;DHT22;8790;53.590;10.002;2023-06-24T11:08:45;22.30;99.90
17346;DHT22;8790;53.590;10.002;2023-06-24T11:11:20;22.30;99.90
17346;DHT22;8790;53.590;10.002;2023-06-24T11:13:53;22.30;99.90
17346;DHT22;8790;53.590;10.002;2023-06-24T11:16:27;22.30;99.90
17346;DHT22;8790;53.590;10.002;2023-06-24T11:19:01;22.30;99.90
17346;DHT22;8790;53.590;10.002;2023-06-24T11:21:32;22.30;99.90
17346;DHT22;8790;53.590;10.002;2023-06-24T11:24:05;22.40;99.90
17346;DHT22;8790;53.590;10.002;2023-06-24T11:26:38;22.40;99.90
17346;DHT22;8790;53.590;10.002;2023-06-24T11:29:10;22.40;99.90
17346;DHT22;8790;53.590;10.002;2023-06-24T11:31:44;22.60;99.90
17346;DHT22;8790;53.590;10.002;2023-06-24T11:34:16;22.60;99.90
17346;DHT22;8790;53.590;10.002;2023-06-24T11:36:49;22.70;99.90
17346;DHT22;8790;53.590;10.002;2023-06-24T11:39:22;22.80;99.90
17346;DHT22;8790;53.590;10.002;2023-06-24T11:41:57;22.70;99.90
17346;DHT22;8790;53.590;10.002;2023-06-24T11:44:31;22.80;99.90
17346;DHT22;8790;53.590;10.002;2023-06-24T11:47:05;22.80;99.90
17346;DHT22;8790;53.590;10.002;2023-06-24T11:49:58;22.80;99.90
17346;DHT22;8790;53.590;10.002;2023-06-24T11:52:39;22.80;99.90
17346;DHT22;8790;53.590;10.002;2023-06-24T11:55:12;22.80;99.90
17346;DHT22;8790;53.590;10.002;2023-06-24T11:57:51;22.80;99.90
17346;DHT22;8790;53.590;10.002;2023-06-24T12:00:25;22.90;99.90
17346;DHT22;8790;53.590;10.002;2023-06-24T12:02:59;23.00;99.90
17346;DHT22;8790;53.590;10.002;2023-06-24T12:05:33;22.90;99.90
17346;DHT22;8790;53.590;10.002;2023-06-24T12:08:06;22.90;99.90
17346;DHT22;8790;53.590;10.002;2023-06-24T12:10:38;22.90;99.90
17346;DHT22;8790;53.590;10.002;2023-06-24T12:13:10;22.90;99.90
17346;DHT22;8790;53.590;10.002;2023-06-24T12:15:42;22.90;99.90
17346;DHT22;8790;53.590;10.002;2023-06-24T12:18:15;23.00;99.90
17346;DHT22;8790;53.590;10.002;2023-06-24T12:20:47;23.00;99.90
17346;DHT22;8790;53.590;10.002;2023-06-24T12:23:18;23.00;99.90
17346;DHT22;8790;53.590;10.002;2023-06-24T12:25:50;22.90;99.90
17346;DHT22;8790;53.590;10.002;2023-06-24T12:28:22;23.00;99.90
17346;DHT22;8790;53.590;10.002;2023-06-24T12:30:54;23.00;99.90
17346;DHT22;8790;53.590;10.002;2023-06-24T12:33:27;23.00;99.90
17346;DHT22;8790;53.590;10.002;2023-06-24T12:35:58;23.10;99.90
17346;DHT22;8790;53.590;10.002;2023-06-24T12:38:30;23.20;99.90
17346;DHT22;8790;53.590;10.002;2023-06-24T12:41:03;23.20;99.90
17346;DHT22;8790;53.590;10.002;2023-06-24T12:43:35;23.20;99.90
17346;DHT22;8790;53.590;10.002;2023-06-24T12:46:07;23.30;99.90
17346;DHT22;8790;53.590;10.002;2023-06-24T12:48:40;23.40;99.90
17346;DHT22;8790;53.590;10.002;2023-06-24T12:51:11;23.40;99.90
17346;DHT22;8790;53.590;10.002;2023-06-24T12:53:43;23.30;99.90
17346;DHT22;8790;53.590;10.002;2023-06-24T12:56:15;23.40;99.90
17346;DHT22;8790;53.590;10.002;2023-06-24T12:58:46;23.60;99.90
17346;DHT22;8790;53.590;10.002;2023-06-24T13:01:18;23.60;99.90
17346;DHT22;8790;53.590;10.002;2023-06-24T13:03:51;23.80;99.90
17346;DHT22;8790;53.590;10.002;2023-06-24T13:06:24;23.80;99.90
17346;DHT22;8790;53.590;10.002;2023-06-24T13:08:56;23.60;99.90
17346;DHT22;8790;53.590;10.002;2023-06-24T13:11:28;23.60;99.90
17346;DHT22;8790;53.590;10.002;2023-06-24T13:13:59;23.60;99.90
17346;DHT22;8790;53.590;10.002;2023-06-24T13:16:31;23.70;99.90
17346;DHT22;8790;53.590;10.002;2023-06-24T13:19:04;23.90;99.90
17346;DHT22;8790;53.590;10.002;2023-06-24T13:21:36;23.90;99.90
17346;DHT22;8790;53.590;10.002;2023-06-24T13:24:08;23.90;99.90
17346;DHT22;8790;53.590;10.002;2023-06-24T13:26:40;24.00;99.90
17346;DHT22;8790;53.590;10.002;2023-06-24T13:29:12;24.00;99.90
17346;DHT22;8790;53.590;10.002;2023-06-24T13:31:43;24.10;99.90
17346;DHT22;8790;53.590;10.002;2023-06-24T13:34:17;24.10;99.90
17346;DHT22;8790;53.590;10.002;2023-06-24T13:36:48;24.20;99.90
17346;DHT22;8790;53.590;10.002;2023-06-24T13:39:20;24.30;99.90
17346;DHT22;8790;53.590;10.002;2023-06-24T13:41:55;24.30;99.90
17346;DHT22;8790;53.590;10.002;2023-06-24T13:44:27;24.30;99.90
17346;DHT22;8790;53.590;10.002;2023-06-24T13:46:59;24.40;99.90
17346;DHT22;8790;53.590;10.002;2023-06-24T13:49:33;24.40;99.90
17346;DHT22;8790;53.590;10.002;2023-06-24T13:52:05;24.60;99.90
17346;DHT22;8790;53.590;10.002;2023-06-24T13:54:37;24.70;99.90
17346;DHT22;8790;53.590;10.002;2023-06-24T13:57:09;24.90;99.90
17346;DHT22;8790;53.590;10.002;2023-06-24T13:59:40;25.20;99.90
17346;DHT22;8790;53.590;10.002;2023-06-24T14:02:12;25.50;99.90
17346;DHT22;8790;53.590;10.002;2023-06-24T14:04:45;25.70;99.90
17346;DHT22;8790;53.590;10.002;2023-06-24T14:07:18;25.70;99.90
17346;DHT22;8790;53.590;10.002;2023-06-24T14:09:50;25.60;99.90
17346;DHT22;8790;53.590;10.002;2023-06-24T14:12:22;25.50;99.90
17346;DHT22;8790;53.590;10.002;2023-06-24T14:14:53;25.40;99.90
17346;DHT22;8790;53.590;10.002;2023-06-24T14:17:25;25.50;99.90
17346;DHT22;8790;53.590;10.002;2023-06-24T14:19:58;25.70;99.90
17346;DHT22;8790;53.590;10.002;2023-06-24T14:22:30;26.00;99.90
17346;DHT22;8790;53.590;10.002;2023-06-24T14:25:02;26.10;99.90
17346;DHT22;8790;53.590;10.002;2023-06-24T14:27:34;26.10;99.90
17346;DHT22;8790;53.590;10.002;2023-06-24T14:30:07;26.10;99.90
17346;DHT22;8790;53.590;10.002;2023-06-24T14:32:39;26.20;99.90
17346;DHT22;8790;53.590;10.002;2023-06-24T14:35:12;26.30;99.90
17346;DHT22;8790;53.590;10.002;2023-06-24T14:37:44;26.30;99.90
17346;DHT22;8790;53.590;10.002;2023-06-24T14:40:16;26.10;99.90
17346;DHT22;8790;53.590;10.002;2023-06-24T14:42:48;26.30;99.90
17346;DHT22;8790;53.590;10.002;2023-06-24T14:45:19;26.60;99.90
17346;DHT22;8790;53.590;10.002;2023-06-24T14:47:51;26.90;99.90
17346;DHT22;8790;53.590;10.002;2023-06-24T14:50:24;27.20;99.90
17346;DHT22;8790;53.590;10.002;2023-06-24T14:52:56;27.40;99.90
17346;DHT22;8790;53.590;10.002;2023-06-24T14:55:28;27.50;99.90
17346;DHT22;8790;53.590;10.002;2023-06-24T14:58:00;27.80;99.90
17346;DHT22;8790;53.590;10.002;2023-06-24T15:00:31;27.70;99.90
17346;DHT22;8790;53.590;10.002;2023-06-24T15:03:03;27.90;99.90
17346;DHT22;8790;53.590;10.002;2023-06-24T15:05:36;27.70;99.90
17346;DHT22;8790;53.590;10.002;2023-06-24T15:08:09;27.50;99.90
17346;DHT22;8790;53.590;10.002;2023-06-24T15:10:41;27.80;99.90
17346;DHT22;8790;53.590;10.002;2023-06-24T15:13:13;27.60;99.90
17346;DHT22;8790;53.590;10.002;2023-06-24T15:15:44;27.70;99.90
17346;DHT22;8790;53.590;10.002;2023-06-24T15:18:16;27.60;99.90
17346;DHT22;8790;53.590;10.002;2023-06-24T15:20:49;27.50;99.90
17346;DHT22;8790;53.590;10.002;2023-06-24T15:23:21;27.50;99.90
17346;DHT22;8790;53.590;10.002;2023-06-24T15:25:53;27.40;99.90
17346;DHT22;8790;53.590;10.002;2023-06-24T15:28:25;27.00;99.90
17346;DHT22;8790;53.590;10.002;2023-06-24T15:30:57;26.90;99.90
17346;DHT22;8790;53.590;10.002;2023-06-24T15:33:28;26.80;99.90
17346;DHT22;8790;53.590;10.002;2023-06-24T15:36:02;26.60;99.90
17346;DHT22;8790;53.590;10.002;2023-06-24T15:38:33;26.50;99.90
17346;DHT22;8790;53.590;10.002;2023-06-24T15:41:05;26.40;99.90
17346;DHT22;8790;53.590;10.002;2023-06-24T15:43:37;26.20;99.90
17346;DHT22;8790;53.590;10.002;2023-06-24T15:46:08;26.20;99.90
17346;DHT22;8790;53.590;10.002;2023-06-24T15:48:40;26.10;99.90
17346;DHT22;8790;53.590;10.002;2023-06-24T15:51:14;26.00;99.90
17346;DHT22;8790;53.590;10.002;2023-06-24T15:53:45;25.90;99.90
17346;DHT22;8790;53.590;10.002;2023-06-24T15:56:17;25.80;99.90
17346;DHT22;8790;53.590;10.002;2023-06-24T15:58:49;25.80;99.90
17346;DHT22;8790;53.590;10.002;2023-06-24T16:01:21;25.70;99.90
17346;DHT22;8790;53.590;10.002;2023-06-24T16:03:53;25.60;99.90
17346;DHT22;8790;53.590;10.002;2023-06-24T16:06:26;25.60;99.90
17346;DHT22;8790;53.590;10.002;2023-06-24T16:08:58;25.60;99.90
17346;DHT22;8790;53.590;10.002;2023-06-24T16:11:31;25.50;99.90